Aeroporto :
LOGIN :

Iscrizione | Disclaimer

   EN    FR    IT 

 










Sommario :    VFR   VFR Marginale   IFR   IFR Intensivo   IFR Molto Intensivo
Visibilità : 
Base nubi : 
>= 8 km
>= 3000ft
5 / 8 km
1000 / 3000 ft
1500m / 5 km
500 / 1000 ft
800 / 1500m
200 / 500 ft
< 800m
< 200 ft
Simboli :   Temporali  Nebbia  Neve Forte  Precipitazioni Forti  Vento > 20 kt
SIGMETs :   Varie  Temporali  Ghiacco  Turbolenza  Onda orograficha  Ceneri Vulcaniche






- Altitudine del aeroporto : 330 ft
- Codice IATA : PVN


LBPL - Dolna Mitropoliya Air Base

ULTIMO METAR :
  • 240900Z 24002KT 6000 BR BKN020 15/11 Q1006

METARs OBSOLETI :
  • 240800Z 26006KT 1500 BR OVC005 14/11 Q1006
  • 240700Z 24006KT 1500 BR OVC005 12/10 Q1006
  • 240628Z 26006KT 1500 BR OVC005 11/10 Q1006
  • 240600Z 26006KT 1500 BR OVC005 11/10 Q1006
  • 240500Z 18004KT 2000 BR BKN007 10/09 Q1005
  • 240425Z 27004KT 4500 BR SCT008 BKN050 10/10 Q1005

TAF N/A



MetMap, La meteo Aeronautica in un colpo d'occhio ! - Copyright ORBIFLY Dicembre 2007 - Disclaimer

ORBIFLY MET'MAP TEAM :

Programmazione e sviluppo : Alexandra Zaïnal
Concezione : Baudouin d'Aumeries
Supporto tecnico e logistico : Manuel Goepfert
Aiuto : Marc-Olivier Méhu
Aiuto per la traduzione : Arnaldo La Scala




FONTI E CREDITI :

   NOAA